Time;durP1;ratioP1;P1;durP2;ratioP2;P2;SDS_P1;SDS_P2;PMS_P1;PMS_P2;Temp;Humidity;BMP_temperature;BMP_pressure;BME280_temperature;BME280_humidity;BME280_pressure;Samples;Min_cycle;Max_cycle;Signal;HPM_P1;HPM_P2
2022/12/15 00:39:40;;;;;;;26.10;15.40;;;;;;;-4.73;61.55;99304.72;5139129;27;20059;-60
2022/12/15 00:42:07;;;;;;;21.40;14.02;;;;;;;-4.77;61.20;99298.13;5137146;27;20051;-61
2022/12/15 00:44:36;;;;;;;26.20;16.08;;;;;;;-4.80;61.40;99298.63;5132902;27;20384;-60
2022/12/15 00:47:04;;;;;;;25.02;14.77;;;;;;;-4.68;61.47;99293.97;5136846;27;20399;-61
2022/12/15 01:22:36;;;;;;;23.63;14.77;;;;;;;-4.87;61.52;99308.78;5117608;28;20066;-60
2022/12/15 01:25:04;;;;;;;26.80;16.25;;;;;;;-4.99;61.71;99317.00;5122169;27;20047;-61
2022/12/15 01:27:32;;;;;;;24.77;14.25;;;;;;;-5.04;61.88;99323.16;5136150;27;20466;-60
2022/12/15 01:29:59;;;;;;;26.17;14.52;;;;;;;-4.91;62.16;99328.28;5124256;27;20051;-62
2022/12/15 01:32:27;;;;;;;25.65;13.57;;;;;;;-4.87;61.97;99330.50;5115202;28;20052;-62
2022/12/15 01:34:56;;;;;;;23.15;13.07;;;;;;;-4.86;61.82;99321.31;5123577;27;20497;-61
2022/12/15 01:37:24;;;;;;;21.17;13.02;;;;;;;-4.86;61.89;99333.00;5135843;27;20055;-62
2022/12/15 01:42:36;;;;;;;23.73;13.63;;;;;;;-4.81;61.69;99332.25;5139807;27;20058;-59
2022/12/15 01:45:40;;;;;;;24.13;13.43;;;;;;;-4.75;61.09;99331.28;5133321;27;20043;-60
2022/12/15 01:48:12;;;;;;;23.75;13.27;;;;;;;-4.76;61.22;99335.91;5135189;27;20058;-62
2022/12/15 01:50:45;;;;;;;20.35;12.90;;;;;;;-4.75;60.90;99347.59;5135124;27;20043;-62
2022/12/15 01:53:17;;;;;;;23.13;13.02;;;;;;;-4.85;61.30;99347.38;5135721;27;20419;-62
2022/12/15 01:55:46;;;;;;;21.30;13.10;;;;;;;-4.78;61.15;99343.47;5133869;27;20047;-63
2022/12/15 01:58:16;;;;;;;24.20;15.27;;;;;;;-4.78;61.43;99343.47;5135188;27;20430;-60
2022/12/15 02:00:43;;;;;;;;;;;;;;;-4.84;61.90;99346.34;5136146;27;20464;-63
2022/12/15 02:03:12;;;;;;;20.00;12.93;;;;;;;-4.84;61.54;99360.72;5135048;27;20394;-60
2022/12/15 02:05:41;;;;;;;24.45;13.60;;;;;;;-4.73;61.30;99361.75;5131569;27;20483;-62
2022/12/15 02:08:10;;;;;;;24.85;13.82;;;;;;;-4.78;61.42;99370.63;5132723;27;20051;-60
2022/12/15 02:10:51;;;;;;;23.85;15.45;;;;;;;-4.79;61.19;99357.28;5114280;28;20059;-61
2022/12/15 02:13:28;;;;;;;24.17;14.20;;;;;;;-4.85;61.14;99364.53;5114855;28;20427;-60
2022/12/15 02:16:06;;;;;;;22.23;13.45;;;;;;;-4.75;61.49;99361.19;5129698;27;20043;-61
2022/12/15 02:18:40;;;;;;;23.40;13.77;;;;;;;-4.79;61.07;99373.59;5094187;28;20044;-61
2022/12/15 02:21:13;;;;;;;24.25;15.07;;;;;;;-4.81;61.38;99370.28;5093999;28;20052;-61
2022/12/15 02:24:22;;;;;;;22.38;14.15;;;;;;;-4.80;61.03;99361.91;5094604;28;20059;-61
2022/12/15 02:27:15;;;;;;;27.50;14.93;;;;;;;-4.91;60.85;99374.47;5085796;28;20052;-60
2022/12/15 02:30:28;;;;;;;22.80;13.90;;;;;;;-4.81;61.28;99379.25;5114502;28;20487;-61
2022/12/15 02:33:11;;;;;;;26.77;15.10;;;;;;;-4.73;61.68;99381.59;5114128;28;20408;-60
2022/12/15 02:35:52;;;;;;;24.10;13.52;;;;;;;-4.84;61.82;99382.47;5131026;27;20044;-61
2022/12/15 02:38:31;;;;;;;24.55;15.45;;;;;;;-4.88;61.62;99380.47;5134913;27;20047;-60
2022/12/15 02:41:00;;;;;;;23.92;14.10;;;;;;;-4.90;61.53;99381.53;5134694;27;20384;-61
2022/12/15 02:43:28;;;;;;;29.65;16.75;;;;;;;-4.79;61.57;99387.97;5134625;27;20648;-61
2022/12/15 02:46:10;;;;;;;27.23;15.57;;;;;;;-4.74;61.93;99382.69;5133137;27;20109;-60
2022/12/15 02:48:49;;;;;;;28.63;16.15;;;;;;;-4.73;61.95;99381.59;5129257;27;20407;-60
2022/12/15 02:51:31;;;;;;;26.73;15.30;;;;;;;-4.64;61.76;99387.50;5134632;27;20055;-61
2022/12/15 02:54:21;;;;;;;25.35;15.45;;;;;;;-4.71;62.10;99392.22;5134498;27;20074;-60
2022/12/15 02:56:54;;;;;;;;;;;;;;;-4.72;62.21;99398.75;5134331;27;20059;-60
2022/12/15 02:59:30;;;;;;;27.92;15.38;;;;;;;-4.61;61.90;99389.72;5132609;27;20303;-61
2022/12/15 03:02:01;;;;;;;28.08;15.38;;;;;;;-4.64;62.48;99394.78;5134182;27;20509;-60
2022/12/15 03:04:32;;;;;;;29.45;16.35;;;;;;;-4.72;62.49;99396.03;5133820;27;20488;-60
2022/12/15 03:07:03;;;;;;;27.10;16.33;;;;;;;-4.65;62.37;99402.13;5128185;27;20059;-61
2022/12/15 03:09:31;;;;;;;27.50;16.25;;;;;;;-4.59;62.73;99395.72;5131491;27;20051;-61
2022/12/15 03:11:59;;;;;;;26.85;15.95;;;;;;;-4.56;62.67;99400.66;5133404;27;20051;-60
2022/12/15 03:14:28;;;;;;;27.88;16.45;;;;;;;-4.64;62.74;99402.94;5113580;28;20427;-61
2022/12/15 03:16:55;;;;;;;27.33;16.45;;;;;;;-4.71;62.51;99412.06;5113216;28;20410;-61
2022/12/15 03:19:23;;;;;;;27.90;16.60;;;;;;;-4.58;62.45;99419.09;5123969;27;20058;-61
2022/12/15 03:21:51;;;;;;;29.17;16.23;;;;;;;-4.53;62.58;99418.41;5133643;27;20059;-61
2022/12/15 03:24:19;;;;;;;28.35;16.17;;;;;;;-4.56;62.75;99416.97;5133623;27;20491;-61
2022/12/15 03:26:48;;;;;;;27.52;16.17;;;;;;;-4.47;62.86;99408.44;5133754;27;20051;-61
2022/12/15 03:29:16;;;;;;;26.95;15.73;;;;;;;-4.35;62.92;99406.50;5132076;27;20047;-61
2022/12/15 03:31:44;;;;;;;24.52;15.05;;;;;;;-4.19;62.78;99411.16;5133400;27;20058;-60
2022/12/15 03:34:12;;;;;;;27.73;15.98;;;;;;;-4.08;62.46;99407.56;5133907;27;20062;-61
2022/12/15 03:36:43;;;;;;;25.10;15.25;;;;;;;-4.00;62.60;99410.97;5133916;27;20054;-58
2022/12/15 03:39:11;;;;;;;25.08;16.13;;;;;;;-3.99;62.67;99418.03;5131964;27;20059;-57
2022/12/15 03:41:40;;;;;;;27.25;15.98;;;;;;;-3.99;62.50;99415.31;5134031;27;20058;-58
2022/12/15 03:44:08;;;;;;;28.08;15.93;;;;;;;-3.95;62.48;99422.75;5133693;27;20058;-58
2022/12/15 03:46:35;;;;;;;26.65;16.15;;;;;;;-3.86;62.27;99417.75;5133454;27;20051;-58
2022/12/15 03:49:02;;;;;;;27.05;15.73;;;;;;;-3.78;61.72;99420.06;5131247;27;20051;-58
2022/12/15 03:51:30;;;;;;;25.80;15.55;;;;;;;-3.78;61.50;99421.94;5133275;27;20051;-58
2022/12/15 03:53:58;;;;;;;24.75;16.13;;;;;;;-3.77;61.53;99432.59;5133433;27;20104;-57
2022/12/15 03:56:26;;;;;;;27.38;15.95;;;;;;;-3.93;61.66;99436.09;5133282;27;20051;-57
2022/12/15 03:58:54;;;;;;;24.88;14.57;;;;;;;-3.93;61.73;99426.03;5131499;27;20047;-58
2022/12/15 04:01:27;;;;;;;26.35;15.27;;;;;;;-3.97;61.53;99435.78;5133289;27;20051;-58
2022/12/15 04:03:54;;;;;;;28.67;16.05;;;;;;;-4.00;62.32;99438.16;5133535;28;20054;-58
2022/12/15 04:06:21;;;;;;;27.13;14.77;;;;;;;-3.93;61.48;99425.22;5132700;28;20047;-58
2022/12/15 04:08:49;;;;;;;30.13;16.30;;;;;;;-4.16;61.68;99426.16;5122506;28;20521;-58
2022/12/15 04:11:16;;;;;;;28.60;16.20;;;;;;;-4.04;61.61;99421.50;5133229;28;20051;-58
2022/12/15 04:13:45;;;;;;;26.08;15.52;;;;;;;-4.12;61.88;99427.31;5133996;27;20047;-58
2022/12/15 04:16:12;;;;;;;26.85;16.77;;;;;;;-4.16;62.31;99426.16;5120941;27;20048;-58
2022/12/15 04:18:40;;;;;;;27.42;15.68;;;;;;;-4.11;62.36;99423.56;5121823;27;20050;-58
2022/12/15 04:21:06;;;;;;;26.67;15.75;;;;;;;-4.08;61.51;99420.34;5137598;27;20047;-58
2022/12/15 04:23:33;;;;;;;28.08;15.05;;;;;;;-4.04;61.27;99417.97;5128647;27;20054;-58
2022/12/15 05:32:17;;;;;;;27.25;14.77;;;;;;;-4.43;61.14;99463.97;5118111;28;20058;-58
2022/12/15 05:34:46;;;;;;;27.73;15.95;;;;;;;-4.44;61.06;99471.31;5103570;28;20067;-58
2022/12/15 05:37:13;;;;;;;28.23;16.25;;;;;;;-4.49;61.47;99466.59;5115561;28;20059;-58
2022/12/15 05:39:41;;;;;;;30.10;15.95;;;;;;;-4.49;61.71;99465.78;5115530;28;20051;-58
2022/12/15 05:42:08;;;;;;;31.50;15.60;;;;;;;-4.44;61.38;99465.03;5115528;28;20391;-58
2022/12/15 05:44:35;;;;;;;29.10;15.88;;;;;;;-4.37;61.14;99468.44;5113233;28;20063;-58
2022/12/15 05:47:03;;;;;;;25.48;14.38;;;;;;;-4.35;60.76;99464.41;5115513;28;20048;-58
2022/12/15 05:49:30;;;;;;;27.63;15.23;;;;;;;-4.33;61.05;99465.00;5114884;28;20056;-58
2022/12/15 05:51:59;;;;;;;27.38;15.77;;;;;;;-4.37;60.96;99471.16;5115051;28;20059;-58
2022/12/15 05:54:27;;;;;;;26.95;15.18;;;;;;;-4.43;60.83;99477.56;5113412;28;20483;-58
2022/12/15 05:56:54;;;;;;;28.80;15.25;;;;;;;-4.40;60.83;99471.66;5117809;27;20069;-58
2022/12/15 05:59:21;;;;;;;28.95;15.88;;;;;;;-4.46;61.04;99480.78;5135611;27;20055;-58
2022/12/15 06:01:49;;;;;;;30.42;15.65;;;;;;;-4.34;60.77;99484.28;5134888;27;20054;-58
2022/12/15 06:04:16;;;;;;;31.08;17.10;;;;;;;-4.37;60.75;99491.00;5132285;27;20070;-58
2022/12/15 06:06:46;;;;;;;27.15;14.80;;;;;;;-4.37;60.54;99495.63;5112297;27;20403;-58
2022/12/15 06:09:15;;;;;;;27.02;14.70;;;;;;;-4.43;60.34;99492.00;5096319;28;20052;-59
2022/12/15 06:11:43;;;;;;;28.00;15.70;;;;;;;-4.50;60.52;99488.56;5098156;28;20055;-58
2022/12/15 06:14:11;;;;;;;30.42;16.80;;;;;;;-4.46;60.61;99491.63;5108185;27;20043;-59
2022/12/15 06:16:39;;;;;;;24.08;14.23;;;;;;;-4.46;60.76;99486.22;5117352;27;20055;-58
2022/12/15 06:19:08;;;;;;;25.88;14.32;;;;;;;-4.48;60.69;99489.16;5103592;27;20047;-58
2022/12/15 06:21:36;;;;;;;31.25;16.35;;;;;;;-4.56;61.00;99484.91;5135085;27;20062;-58
2022/12/15 06:24:05;;;;;;;30.42;15.82;;;;;;;-4.62;61.03;99494.03;5116198;27;20050;-58
2022/12/15 06:26:35;;;;;;;28.95;16.02;;;;;;;-4.63;60.80;99491.56;5099950;28;20518;-58
2022/12/15 06:29:05;;;;;;;29.58;16.08;;;;;;;-4.82;61.33;99497.13;5108678;28;20055;-58
2022/12/15 06:31:33;;;;;;;26.92;16.00;;;;;;;-4.74;60.84;99506.81;5106302;28;20051;-58
2022/12/15 06:34:04;;;;;;;29.77;16.55;;;;;;;-4.75;61.07;99510.56;5107316;28;20051;-58
2022/12/15 06:36:31;;;;;;;25.95;15.45;;;;;;;-4.85;61.04;99510.34;5111885;28;20058;-58
2022/12/15 06:38:59;;;;;;;33.67;18.55;;;;;;;-4.95;61.69;99506.34;5095684;28;20059;-59
2022/12/15 06:41:29;;;;;;;29.63;16.90;;;;;;;-4.69;61.22;99513.16;5111750;27;20047;-58
2022/12/15 06:43:58;;;;;;;25.95;15.55;;;;;;;-4.59;60.75;99511.75;5093304;28;20102;-58
2022/12/15 06:46:27;;;;;;;27.10;14.80;;;;;;;-4.61;60.85;99516.59;5093146;28;20408;-58
2022/12/15 06:48:54;;;;;;;24.20;14.05;;;;;;;-4.58;60.68;99513.38;5092845;28;20051;-58
2022/12/15 06:51:21;;;;;;;27.52;12.77;;;;;;;-4.56;59.91;99509.38;5102251;27;20056;-58
2022/12/15 06:53:49;;;;;;;24.05;13.25;;;;;;;-4.63;59.93;99507.84;5108685;28;20062;-58
2022/12/15 06:56:19;;;;;;;26.63;15.00;;;;;;;-4.74;60.19;99513.06;5131382;27;20506;-58
2022/12/15 06:58:47;;;;;;;;;;;;;;;-4.83;60.34;99514.50;5134354;27;20066;-58
2022/12/15 07:01:16;;;;;;;25.02;14.93;;;;;;;-4.94;60.59;99518.84;5134529;27;19919;-58
2022/12/15 07:03:44;;;;;;;26.33;13.93;;;;;;;-4.98;60.46;99517.66;5112206;27;20055;-59
2022/12/15 07:06:13;;;;;;;27.73;14.80;;;;;;;-4.94;60.94;99518.03;5108670;27;20419;-58
2022/12/15 07:08:41;;;;;;;26.33;14.20;;;;;;;-4.87;61.15;99526.06;5098333;27;20480;-57
2022/12/15 07:11:11;;;;;;;27.27;14.10;;;;;;;-4.98;61.72;99531.25;5112177;27;20055;-59
2022/12/15 07:13:39;;;;;;;28.08;15.75;;;;;;;-4.88;61.11;99527.94;5113431;28;20062;-60
2022/12/15 07:16:07;;;;;;;28.70;15.68;;;;;;;-4.88;61.27;99525.22;5113344;28;20518;-59
2022/12/15 07:18:36;;;;;;;29.13;15.63;;;;;;;-5.03;61.77;99516.75;5113309;28;20423;-59
2022/12/15 07:21:04;;;;;;;27.13;14.65;;;;;;;-5.11;61.54;99528.75;5124466;27;20062;-59
2022/12/15 07:23:35;;;;;;;24.55;14.68;;;;;;;-5.02;61.44;99527.34;5131597;27;20065;-57
2022/12/15 07:26:03;;;;;;;26.50;14.95;;;;;;;-5.01;61.54;99529.00;5132909;27;20051;-60
2022/12/15 07:28:30;;;;;;;26.20;14.65;;;;;;;-4.97;61.35;99521.22;5133775;27;20055;-57
2022/12/15 07:31:02;;;;;;;27.33;14.13;;;;;;;-5.00;61.26;99533.38;5130305;27;20463;-57
2022/12/15 07:33:30;;;;;;;26.17;15.27;;;;;;;-5.08;61.07;99541.88;5133382;27;20054;-60
2022/12/15 07:35:59;;;;;;;26.35;13.77;;;;;;;-5.04;61.34;99548.50;5096606;27;20070;-60
2022/12/15 07:38:26;;;;;;;27.10;14.25;;;;;;;-4.98;61.37;99547.53;5093130;28;20052;-60
2022/12/15 07:40:54;;;;;;;23.95;13.45;;;;;;;-4.74;60.85;99550.28;5098234;28;20043;-59
2022/12/15 07:43:21;;;;;;;23.95;14.50;;;;;;;-4.75;61.36;99552.13;5097079;28;20058;-60
2022/12/15 07:45:59;;;;;;;25.95;13.02;;;;;;;-4.62;60.64;99547.53;5115213;27;20063;-58
2022/12/15 07:48:28;;;;;;;25.85;14.18;;;;;;;-4.57;60.74;99556.63;5128629;27;20051;-58
2022/12/15 07:50:57;;;;;;;30.95;15.85;;;;;;;-4.42;60.13;99556.16;5132735;27;20051;-58
2022/12/15 07:53:27;;;;;;;27.15;15.57;;;;;;;-4.51;60.57;99560.31;5133474;27;20062;-59
2022/12/15 07:55:56;;;;;;;27.45;16.38;;;;;;;-4.53;60.33;99568.69;5130913;27;20051;-58
2022/12/15 07:58:23;;;;;;;33.33;15.85;;;;;;;-4.55;60.10;99570.00;5130667;27;20051;-58
2022/12/15 08:00:52;;;;;;;28.58;17.38;;;;;;;-4.44;60.26;99571.03;5133253;27;20051;-59
2022/12/15 08:03:20;;;;;;;34.10;19.17;;;;;;;-4.41;60.20;99571.41;5133361;28;20059;-59
2022/12/15 08:05:48;;;;;;;57.50;31.10;;;;;;;-4.40;60.06;99577.66;5129273;28;20052;-59
2022/12/15 08:08:17;;;;;;;47.95;28.10;;;;;;;-4.22;59.88;99569.34;5116393;28;20093;-60
2022/12/15 08:10:46;;;;;;;38.00;19.47;;;;;;;-4.09;59.63;99566.38;5112689;28;20059;-60
2022/12/15 08:13:13;;;;;;;27.90;16.10;;;;;;;-4.01;59.97;99567.03;5113062;28;20477;-60
2022/12/15 08:15:41;;;;;;;30.85;15.50;;;;;;;-3.87;59.24;99565.69;5111278;28;20051;-60
2022/12/15 08:18:09;;;;;;;29.70;14.95;;;;;;;-3.78;58.67;99568.84;5132072;28;20051;-59
2022/12/15 08:20:36;;;;;;;27.10;16.00;;;;;;;-3.48;58.63;99574.88;5133254;28;20051;-60
2022/12/15 08:23:04;;;;;;;27.13;15.18;;;;;;;-2.47;56.74;99574.06;5133034;28;20434;-60
2022/12/15 08:25:31;;;;;;;28.15;13.93;;;;;;;-0.76;54.25;99569.38;5132076;28;20051;-60
2022/12/15 08:28:00;;;;;;;28.70;15.50;;;;;;;0.92;50.66;99562.94;5130782;28;20047;-60
2022/12/15 08:30:27;;;;;;;34.40;15.60;;;;;;;2.35;47.24;99568.16;5133270;28;20415;-60
2022/12/15 08:32:55;;;;;;;29.13;14.93;;;;;;;4.02;43.65;99559.91;5132947;28;20063;-60
2022/12/15 08:35:22;;;;;;;20.95;13.25;;;;;;;5.29;40.64;99554.53;5133035;28;20506;-61
2022/12/15 08:37:50;;;;;;;23.00;13.57;;;;;;;5.91;39.16;99545.13;5131263;28;20055;-61
2022/12/15 08:40:17;;;;;;;20.58;11.40;;;;;;;6.55;38.24;99548.00;5132947;28;20480;-60
2022/12/15 08:42:45;;;;;;;20.23;13.75;;;;;;;7.69;35.68;99546.91;5133048;28;20047;-61
2022/12/15 08:45:13;;;;;;;17.85;13.80;;;;;;;9.08;33.52;99544.50;5133087;28;20414;-61
2022/12/15 08:47:41;;;;;;;18.77;13.60;;;;;;;10.25;32.00;99535.22;5128570;28;20051;-59
2022/12/15 08:50:08;;;;;;;18.58;13.18;;;;;;;10.21;31.30;99539.81;5132910;28;20047;-59
2022/12/15 08:52:40;;;;;;;17.50;12.88;;;;;;;11.21;30.62;99540.13;5116701;28;20063;-59
2022/12/15 08:55:10;;;;;;;19.15;14.30;;;;;;;11.91;30.29;99540.28;5112098;28;20051;-60
2022/12/15 08:57:37;;;;;;;;;;;;;;;10.71;28.51;99548.22;5127225;28;20059;-60
2022/12/15 09:00:05;;;;;;;19.95;13.80;;;;;;;11.54;30.35;99548.50;5133015;27;20367;-61
2022/12/15 09:02:34;;;;;;;17.85;13.10;;;;;;;13.11;28.39;99547.25;5135952;27;20058;-60
2022/12/15 09:05:01;;;;;;;20.50;13.18;;;;;;;13.51;27.20;99554.03;5136758;27;20398;-61
2022/12/15 09:07:28;;;;;;;18.98;15.63;;;;;;;13.90;27.51;99549.50;5123652;27;20082;-61
2022/12/15 09:09:56;;;;;;;22.33;16.85;;;;;;;14.13;27.20;99558.09;5115865;28;20055;-61
2022/12/15 09:12:23;;;;;;;21.70;16.27;;;;;;;14.59;25.82;99550.06;5115976;28;20058;-61
2022/12/15 09:14:50;;;;;;;21.08;14.98;;;;;;;15.12;25.09;99548.81;5116083;28;20446;-61
2022/12/15 09:17:18;;;;;;;20.73;15.75;;;;;;;15.75;24.69;99554.16;5131489;27;20047;-59
2022/12/15 09:19:46;;;;;;;20.33;16.08;;;;;;;15.38;24.47;99554.59;5136242;27;20411;-59
2022/12/15 09:22:14;;;;;;;19.92;15.80;;;;;;;15.28;24.91;99545.94;5136262;27;20058;-59
2022/12/15 09:24:41;;;;;;;20.70;16.40;;;;;;;16.19;23.88;99550.94;5136192;27;20059;-61
2022/12/15 09:27:08;;;;;;;25.85;17.67;;;;;;;16.99;26.53;99551.00;5131738;27;20047;-59
2022/12/15 09:29:36;;;;;;;26.33;17.98;;;;;;;15.86;26.21;99557.16;5134748;27;20051;-60
2022/12/15 09:32:04;;;;;;;22.05;17.30;;;;;;;15.88;24.78;99568.03;5136113;27;20051;-61
2022/12/15 09:34:31;;;;;;;22.85;16.92;;;;;;;16.30;24.10;99559.53;5136031;27;20411;-60
2022/12/15 09:36:59;;;;;;;19.52;16.83;;;;;;;16.66;23.83;99562.13;5134515;27;20054;-59
2022/12/15 09:39:27;;;;;;;19.33;15.88;;;;;;;17.18;23.23;99566.94;5135687;27;20479;-61
2022/12/15 09:41:58;;;;;;;20.95;17.48;;;;;;;17.81;22.67;99570.09;5135769;27;20051;-59
2022/12/15 09:44:27;;;;;;;20.63;17.25;;;;;;;18.38;22.46;99569.88;5135806;27;20055;-59
2022/12/15 09:47:01;;;;;;;;;;;;;;;17.74;21.53;99573.63;5134264;27;20043;-59
2022/12/15 09:49:43;;;;;;;19.33;17.23;;;;;;;17.92;21.82;99579.50;5122651;27;19919;-60
2022/12/15 09:52:13;;;;;;;25.67;17.10;;;;;;;16.98;26.18;99582.31;5115184;28;20063;-60
2022/12/15 09:54:43;;;;;;;21.27;17.95;;;;;;;15.20;24.86;99592.66;5114888;28;20503;-59
2022/12/15 09:57:16;;;;;;;;;;;;;;;12.57;26.50;99606.28;5127275;27;20055;-60
2022/12/15 09:59:57;;;;;;;24.95;19.88;;;;;;;11.79;29.10;99605.19;5133984;27;19920;-60
2022/12/15 10:02:47;;;;;;;27.75;19.60;;;;;;;10.11;30.12;99616.94;5135553;27;20055;-60
2022/12/15 10:05:27;;;;;;;24.65;19.75;;;;;;;9.92;31.32;99619.28;5129918;27;20051;-60
2022/12/15 10:07:59;;;;;;;29.92;20.20;;;;;;;9.20;32.38;99626.38;5135631;27;20054;-60
2022/12/15 10:10:41;;;;;;;26.65;18.52;;;;;;;8.70;33.48;99631.19;5134086;27;20498;-60
2022/12/15 10:13:14;;;;;;;24.05;18.83;;;;;;;7.92;34.62;99630.84;5135199;27;20415;-59
2022/12/15 10:15:49;;;;;;;26.08;19.33;;;;;;;7.11;36.82;99632.53;5132697;27;20051;-60
2022/12/15 10:18:22;;;;;;;24.83;17.38;;;;;;;7.62;36.16;99626.91;5134131;27;20069;-60
2022/12/15 10:20:52;;;;;;;25.75;18.05;;;;;;;10.36;32.95;99617.22;5135038;27;20051;-60
2022/12/15 10:23:25;;;;;;;22.17;17.13;;;;;;;12.74;29.27;99608.00;5135020;27;20059;-59
2022/12/15 10:25:59;;;;;;;25.38;18.48;;;;;;;13.71;28.14;99611.78;5132105;27;20062;-60
2022/12/15 10:28:49;;;;;;;21.90;17.55;;;;;;;15.52;25.93;99603.78;5134739;27;20051;-60
2022/12/15 10:31:19;;;;;;;21.98;16.80;;;;;;;17.11;24.86;99599.78;5135029;27;20506;-60
2022/12/15 10:33:54;;;;;;;22.25;17.83;;;;;;;18.24;23.29;99601.56;5134732;27;20092;-60
2022/12/15 10:36:24;;;;;;;25.23;19.55;;;;;;;19.18;22.00;99589.03;5132312;27;20055;-60
2022/12/15 10:38:52;;;;;;;21.25;18.95;;;;;;;20.34;21.44;99588.22;5134769;27;20506;-61
2022/12/15 10:41:22;;;;;;;20.50;17.90;;;;;;;20.55;21.24;99598.72;5134783;27;20051;-61
2022/12/15 10:43:50;;;;;;;;;;;;;;;20.87;20.16;99587.41;5135157;27;20495;-61
2022/12/15 10:46:19;;;;;;;23.02;19.63;;;;;;;22.02;19.98;99587.03;5132041;27;19919;-61
2022/12/15 10:48:49;;;;;;;22.63;18.73;;;;;;;22.30;19.67;99580.44;5127582;27;20043;-61
2022/12/15 10:51:21;;;;;;;20.98;18.73;;;;;;;23.01;19.59;99586.72;5134464;27;20047;-61
2022/12/15 10:53:54;;;;;;;22.45;18.52;;;;;;;23.46;18.68;99583.81;5134760;27;20066;-61
2022/12/15 10:56:25;;;;;;;21.73;18.83;;;;;;;23.58;17.96;99576.75;5134744;27;20057;-62
2022/12/15 10:58:54;;;;;;;21.58;19.38;;;;;;;24.08;18.62;99573.25;5132366;27;20424;-61
2022/12/15 11:01:24;;;;;;;21.73;19.42;;;;;;;24.14;18.15;99571.53;5134333;27;20062;-61
2022/12/15 11:03:52;;;;;;;22.40;19.60;;;;;;;24.68;17.67;99568.66;5134281;27;20066;-61
2022/12/15 11:06:22;;;;;;;22.88;20.55;;;;;;;25.09;18.01;99561.00;5128737;27;20063;-61
2022/12/15 11:08:53;;;;;;;23.98;21.08;;;;;;;24.88;17.39;99560.19;5133691;27;20426;-62
2022/12/15 11:14:14;;;;;;;25.05;22.35;;;;;;;24.67;17.46;99552.81;5052635;28;20054;-62
2022/12/15 11:16:59;;;;;;;27.33;24.83;;;;;;;24.45;16.86;99554.38;5123306;27;20051;-62
2022/12/15 11:19:38;;;;;;;27.95;25.30;;;;;;;24.95;17.43;99556.41;5133876;27;20051;-62
2022/12/15 11:22:12;;;;;;;26.00;23.60;;;;;;;24.90;17.77;99559.72;5134235;27;20495;-62
2022/12/15 11:24:46;;;;;;;54.40;50.78;;;;;;;25.06;17.29;99556.97;5133602;27;20434;-62
2022/12/15 11:27:20;;;;;;;1999.90;999.90;;;;;;;25.34;16.14;99557.69;5125886;27;20411;-62
2022/12/15 11:30:02;;;;;;;1999.90;999.90;;;;;;;25.61;16.56;99548.19;5134150;27;20047;-61
2022/12/15 11:32:33;;;;;;;1999.90;999.90;;;;;;;25.63;17.20;99560.75;5134015;27;20055;-61
2022/12/15 11:35:01;;;;;;;1999.90;999.90;;;;;;;25.66;16.54;99553.34;5130547;27;20596;-62
2022/12/15 11:37:40;;;;;;;1999.90;999.90;;;;;;;26.19;16.20;99550.59;5133328;27;20059;-62
2022/12/15 11:40:30;;;;;;;1999.90;999.90;;;;;;;26.36;15.84;99545.69;5133981;27;20047;-62
2022/12/15 11:43:26;;;;;;;1999.90;999.90;;;;;;;26.17;15.55;99544.53;5133686;27;20058;-62
2022/12/15 11:46:06;;;;;;;1999.90;999.90;;;;;;;26.46;15.50;99544.63;5131743;27;20411;-62
2022/12/15 11:48:41;;;;;;;1999.90;999.90;;;;;;;26.17;16.08;99538.81;5128299;27;20407;-62
2022/12/15 11:51:16;;;;;;;1999.90;999.90;;;;;;;26.51;15.49;99542.03;5112896;28;20055;-62
2022/12/15 11:54:03;;;;;;;1999.90;999.90;;;;;;;26.78;15.22;99538.09;5112903;28;20056;-62
2022/12/15 11:56:34;;;;;;;1999.90;999.90;;;;;;;26.61;15.48;99536.53;5106525;28;20044;-62
2022/12/15 11:59:29;;;;;;;1999.90;999.90;;;;;;;26.24;15.73;99530.88;5126708;27;20059;-62
2022/12/15 12:02:14;;;;;;;1999.90;999.90;;;;;;;26.52;15.85;99534.25;5125942;27;20398;-63
2022/12/15 12:04:56;;;;;;;1999.90;999.90;;;;;;;26.12;15.61;99532.38;5133216;28;20051;-63
2022/12/15 12:07:32;;;;;;;1999.90;999.90;;;;;;;26.39;15.98;99539.06;5133321;28;20055;-62
2022/12/15 12:10:09;;;;;;;40.08;36.85;;;;;;;26.46;15.49;99538.91;5133109;28;20518;-62
2022/12/15 12:12:43;;;;;;;32.20;29.48;;;;;;;26.40;15.23;99524.38;5129830;28;20051;-62
2022/12/15 12:15:26;;;;;;;37.72;34.30;;;;;;;26.15;15.23;99524.97;5133122;28;20455;-62
2022/12/15 12:17:58;;;;;;;34.38;31.58;;;;;;;26.15;15.51;99522.13;5133149;28;20410;-62
2022/12/15 12:20:39;;;;;;;38.83;35.95;;;;;;;25.58;16.36;99537.66;5133039;28;20059;-62
2022/12/15 12:23:16;;;;;;;35.60;32.75;;;;;;;25.68;16.58;99530.91;5128198;28;20129;-62
2022/12/15 12:25:55;;;;;;;34.55;31.58;;;;;;;25.63;16.22;99522.88;5092209;28;20060;-62
2022/12/15 12:28:27;;;;;;;30.05;27.33;;;;;;;25.57;16.07;99516.88;5126865;28;20411;-62
2022/12/15 12:30:59;;;;;;;29.42;26.92;;;;;;;25.39;16.77;99511.56;5133241;28;20054;-63
2022/12/15 12:33:35;;;;;;;29.35;26.73;;;;;;;25.09;16.67;99524.78;5133064;28;20058;-62
2022/12/15 12:36:10;;;;;;;25.00;21.83;;;;;;;25.36;16.78;99511.66;5136041;27;20058;-62
2022/12/15 12:38:44;;;;;;;23.48;21.08;;;;;;;25.34;16.72;99511.28;5135553;27;20051;-62
2022/12/15 12:41:20;;;;;;;23.67;21.25;;;;;;;25.56;16.50;99503.09;5137125;27;20047;-62
2022/12/15 12:43:51;;;;;;;21.65;19.30;;;;;;;25.22;17.24;99512.72;5137178;27;20415;-62
2022/12/15 12:46:25;;;;;;;22.88;20.60;;;;;;;25.41;17.02;99506.25;5135818;27;20055;-62
2022/12/15 12:48:56;;;;;;;24.67;21.63;;;;;;;25.85;16.64;99503.22;5077703;28;20059;-62
2022/12/15 12:51:27;;;;;;;23.33;20.90;;;;;;;26.10;15.92;99512.03;5092159;28;20055;-62
2022/12/15 12:53:55;;;;;;;23.17;20.63;;;;;;;26.07;16.32;99509.28;5095656;28;20492;-62
2022/12/15 12:56:35;;;;;;;23.23;20.95;;;;;;;25.86;16.17;99507.69;5095739;28;20048;-62
2022/12/15 12:59:07;;;;;;;26.42;20.92;;;;;;;25.65;16.70;99498.38;5095274;28;20496;-62
2022/12/15 13:01:37;;;;;;;22.02;19.83;;;;;;;25.33;16.72;99493.38;5091946;28;20055;-62
2022/12/15 13:04:10;;;;;;;25.13;21.55;;;;;;;25.21;16.52;99494.03;5103470;28;20062;-62
2022/12/15 13:07:02;;;;;;;26.65;22.23;;;;;;;25.14;16.69;99489.25;5115680;28;20051;-62
2022/12/15 13:09:41;;;;;;;26.88;24.38;;;;;;;25.20;16.41;99481.00;5116233;27;20052;-62
2022/12/15 13:12:34;;;;;;;26.13;23.50;;;;;;;24.91;17.23;99478.72;5136488;27;20047;-62
2022/12/15 13:15:06;;;;;;;26.50;23.98;;;;;;;24.75;17.47;99482.28;5136236;27;20047;-62
2022/12/15 13:17:41;;;;;;;27.98;25.40;;;;;;;24.51;16.99;99479.47;5136389;27;20055;-62
2022/12/15 13:20:24;;;;;;;30.42;27.52;;;;;;;24.14;17.84;99471.94;5129617;27;20491;-62
2022/12/15 13:22:53;;;;;;;38.00;34.95;;;;;;;23.77;18.10;99472.94;5135838;27;20062;-62
2022/12/15 13:25:37;;;;;;;1999.90;999.90;;;;;;;23.58;18.02;99461.00;5136066;27;20051;-62
2022/12/15 13:28:27;;;;;;;1999.90;999.90;;;;;;;23.37;17.88;99459.28;5125201;27;20481;-62
2022/12/15 13:31:35;;;;;;;1999.90;999.90;;;;;;;23.22;18.02;99455.78;5125733;27;20442;-62
2022/12/15 13:34:17;;;;;;;1999.90;999.90;;;;;;;22.64;18.26;99458.50;5136128;27;20054;-62
2022/12/15 13:36:55;;;;;;;1999.90;999.90;;;;;;;22.03;18.85;99458.22;5135782;27;20055;-61
2022/12/15 13:39:55;;;;;;;1999.90;999.90;;;;;;;21.40;19.97;99461.84;5125761;27;20051;-62
2022/12/15 13:42:33;;;;;;;;;;;;;;;20.68;20.23;99450.00;5109802;27;20047;-61
2022/12/15 13:45:38;;;;;;;1999.90;999.90;;;;;;;19.94;20.47;99455.31;5136016;27;19923;-62
2022/12/15 13:48:17;;;;;;;22.90;16.45;;;;;;;18.13;22.42;99463.34;5103666;27;20415;-62
2022/12/15 13:50:52;;;;;;;22.25;18.20;;;;;;;17.02;24.32;99465.00;5129011;27;20404;-62
2022/12/15 13:53:24;;;;;;;19.55;15.23;;;;;;;15.92;24.85;99465.00;5135842;27;20428;-61
2022/12/15 13:55:57;;;;;;;22.50;15.93;;;;;;;14.88;27.11;99475.00;5135322;27;20051;-61
2022/12/15 13:58:28;;;;;;;25.20;15.98;;;;;;;13.71;28.09;99471.00;5135192;27;20085;-61
2022/12/15 14:00:56;;;;;;;23.98;16.10;;;;;;;12.93;29.13;99464.84;5128602;27;20062;-61
2022/12/15 14:03:24;;;;;;;24.83;17.48;;;;;;;12.11;30.70;99460.38;5135618;27;20487;-61